DAN weather

Public forecast

Using degrees Fahrenheit for public forecast. Weather courtesy of forecast.io.

Current aviation weather report (METAR) for Danville Regional Airport

Retrieved 2020/08/15 15:53 UTC (41 minutes ago):

KDAN 151553Z AUTO 05009KT 10SM OVC006 22/20 A2994 RMK AO2 RAB1458E22 SLP128 P0000 T02220200

Aviation forecast (TAF) for Danville Regional Airport

Retrieved 2020/08/15 13:00 UTC (4 hours ago):

TAF COR KDAN 151258Z 1513/1612 04005KT P6SM OVC005 FM151500 07006KT P6SM SHRA VCTS BKN012CB FM152300 VRB04KT P6SM VCSH BKN009 FM160300 VRB03KT 6SM BR OVC005